Linn, Texas
Current Conditions -  °F | °C
As of 8:55 PM on Tuesday 21 Oct 2014 (Local Time) from KEBG Reporting Station
Overcast Overcast  
Wind Chill: 76°   Ceiling: 8500
Heat Index: 76°   Visibility: 10mi
Dew Point: 72°   Wind: 6mph
Humidity: 89%   Direction: 40°NE
Pressure: 29.97"   Gusts: NA
Location:  26.56°N, 98.12°W
Report Text: KEBG 220155Z AUTO 04005KT 10SM SCT025 SCT045 OVC085 24/22 A2997 RMK AO2 T02430224
Loading
Personal Weather Stations






























Interactive Weather Map
Tropical Storm Tracking
New forecast layout! Learn more

10-Day Weather Forecast

Advertisements
Track Severe Weather on mobile